sensor_id;sensor_type;location;lat;lon;timestamp;P1;durP1;ratioP1;P2;durP2;ratioP2
76053;SDS011;64752;48.870;9.082;2024-01-11T00:00:42;76.67;;;40.70;;
76053;SDS011;64752;48.870;9.082;2024-01-11T00:03:07;74.70;;;43.00;;
76053;SDS011;64752;48.870;9.082;2024-01-11T00:05:32;71.43;;;41.47;;
76053;SDS011;64752;48.870;9.082;2024-01-11T00:07:58;85.00;;;46.07;;
76053;SDS011;64752;48.870;9.082;2024-01-11T00:10:23;86.17;;;43.30;;
76053;SDS011;64752;48.870;9.082;2024-01-11T00:12:48;83.20;;;43.37;;
76053;SDS011;64752;48.870;9.082;2024-01-11T00:15:14;90.63;;;45.97;;
76053;SDS011;64752;48.870;9.082;2024-01-11T00:17:39;79.80;;;44.27;;
76053;SDS011;64752;48.870;9.082;2024-01-11T00:20:05;86.50;;;42.13;;
76053;SDS011;64752;48.870;9.082;2024-01-11T00:22:31;87.95;;;44.13;;
76053;SDS011;64752;48.870;9.082;2024-01-11T00:24:57;82.20;;;43.10;;
76053;SDS011;64752;48.870;9.082;2024-01-11T00:27:22;83.00;;;44.83;;
76053;SDS011;64752;48.870;9.082;2024-01-11T00:29:47;98.03;;;44.53;;
76053;SDS011;64752;48.870;9.082;2024-01-11T00:32:13;90.33;;;45.57;;
76053;SDS011;64752;48.870;9.082;2024-01-11T00:34:38;86.77;;;45.63;;
76053;SDS011;64752;48.870;9.082;2024-01-11T00:37:03;84.07;;;43.27;;
76053;SDS011;64752;48.870;9.082;2024-01-11T00:39:29;90.30;;;43.77;;
76053;SDS011;64752;48.870;9.082;2024-01-11T00:41:54;86.53;;;45.27;;
76053;SDS011;64752;48.870;9.082;2024-01-11T00:44:20;85.40;;;45.17;;
76053;SDS011;64752;48.870;9.082;2024-01-11T00:46:45;102.03;;;49.47;;
76053;SDS011;64752;48.870;9.082;2024-01-11T00:49:11;90.53;;;47.40;;
76053;SDS011;64752;48.870;9.082;2024-01-11T00:51:36;88.03;;;47.63;;
76053;SDS011;64752;48.870;9.082;2024-01-11T00:54:01;81.63;;;44.23;;
76053;SDS011;64752;48.870;9.082;2024-01-11T00:56:27;88.07;;;42.63;;
76053;SDS011;64752;48.870;9.082;2024-01-11T00:58:52;85.90;;;45.43;;
76053;SDS011;64752;48.870;9.082;2024-01-11T01:01:17;99.57;;;49.23;;
76053;SDS011;64752;48.870;9.082;2024-01-11T01:03:43;93.27;;;46.67;;
76053;SDS011;64752;48.870;9.082;2024-01-11T01:06:09;89.47;;;45.07;;
76053;SDS011;64752;48.870;9.082;2024-01-11T01:08:34;83.53;;;44.43;;
76053;SDS011;64752;48.870;9.082;2024-01-11T01:10:59;95.23;;;47.50;;
76053;SDS011;64752;48.870;9.082;2024-01-11T01:13:25;96.73;;;48.37;;
76053;SDS011;64752;48.870;9.082;2024-01-11T01:15:50;86.83;;;46.73;;
76053;SDS011;64752;48.870;9.082;2024-01-11T01:18:16;80.60;;;41.93;;
76053;SDS011;64752;48.870;9.082;2024-01-11T01:20:41;83.30;;;42.23;;
76053;SDS011;64752;48.870;9.082;2024-01-11T01:23:06;79.97;;;41.70;;
76053;SDS011;64752;48.870;9.082;2024-01-11T01:25:32;85.50;;;41.93;;
76053;SDS011;64752;48.870;9.082;2024-01-11T01:28:00;72.78;;;38.08;;
76053;SDS011;64752;48.870;9.082;2024-01-11T01:30:26;78.00;;;41.23;;
76053;SDS011;64752;48.870;9.082;2024-01-11T01:32:52;77.28;;;40.65;;
76053;SDS011;64752;48.870;9.082;2024-01-11T01:35:17;80.20;;;41.23;;
76053;SDS011;64752;48.870;9.082;2024-01-11T01:37:43;76.00;;;39.13;;
76053;SDS011;64752;48.870;9.082;2024-01-11T01:40:08;81.67;;;43.57;;
76053;SDS011;64752;48.870;9.082;2024-01-11T01:42:34;82.33;;;42.37;;
76053;SDS011;64752;48.870;9.082;2024-01-11T01:44:59;84.13;;;43.07;;
76053;SDS011;64752;48.870;9.082;2024-01-11T01:47:25;85.23;;;43.40;;
76053;SDS011;64752;48.870;9.082;2024-01-11T01:49:52;92.28;;;45.38;;
76053;SDS011;64752;48.870;9.082;2024-01-11T01:52:19;82.60;;;41.92;;
76053;SDS011;64752;48.870;9.082;2024-01-11T01:54:45;95.83;;;49.57;;
76053;SDS011;64752;48.870;9.082;2024-01-11T01:59:37;93.60;;;51.78;;
76053;SDS011;64752;48.870;9.082;2024-01-11T02:02:05;114.28;;;58.60;;
76053;SDS011;64752;48.870;9.082;2024-01-11T02:04:32;115.95;;;62.75;;
76053;SDS011;64752;48.870;9.082;2024-01-11T02:06:57;108.90;;;61.17;;
76053;SDS011;64752;48.870;9.082;2024-01-11T02:09:24;113.13;;;61.80;;
76053;SDS011;64752;48.870;9.082;2024-01-11T02:11:50;125.93;;;65.83;;
76053;SDS011;64752;48.870;9.082;2024-01-11T02:14:17;113.47;;;63.53;;
76053;SDS011;64752;48.870;9.082;2024-01-11T02:16:43;132.88;;;66.50;;
76053;SDS011;64752;48.870;9.082;2024-01-11T02:19:09;117.30;;;65.60;;
76053;SDS011;64752;48.870;9.082;2024-01-11T02:21:38;109.53;;;61.40;;
76053;SDS011;64752;48.870;9.082;2024-01-11T02:24:07;116.22;;;62.80;;
76053;SDS011;64752;48.870;9.082;2024-01-11T02:26:33;115.57;;;62.50;;
76053;SDS011;64752;48.870;9.082;2024-01-11T02:28:59;117.70;;;63.13;;
76053;SDS011;64752;48.870;9.082;2024-01-11T02:31:24;113.37;;;61.43;;
76053;SDS011;64752;48.870;9.082;2024-01-11T02:33:53;109.75;;;62.70;;
76053;SDS011;64752;48.870;9.082;2024-01-11T02:36:22;109.13;;;59.92;;
76053;SDS011;64752;48.870;9.082;2024-01-11T02:38:49;98.35;;;55.55;;
76053;SDS011;64752;48.870;9.082;2024-01-11T02:41:16;94.47;;;55.58;;
76053;SDS011;64752;48.870;9.082;2024-01-11T02:43:46;96.38;;;55.65;;
76053;SDS011;64752;48.870;9.082;2024-01-11T02:46:13;101.00;;;53.53;;
76053;SDS011;64752;48.870;9.082;2024-01-11T02:48:42;100.30;;;56.38;;
76053;SDS011;64752;48.870;9.082;2024-01-11T02:51:07;104.23;;;58.17;;
76053;SDS011;64752;48.870;9.082;2024-01-11T02:53:32;108.07;;;58.43;;
76053;SDS011;64752;48.870;9.082;2024-01-11T02:55:59;96.30;;;56.28;;
76053;SDS011;64752;48.870;9.082;2024-01-11T02:58:25;102.43;;;57.08;;
76053;SDS011;64752;48.870;9.082;2024-01-11T03:00:51;107.70;;;58.47;;
76053;SDS011;64752;48.870;9.082;2024-01-11T03:03:16;102.13;;;56.67;;
76053;SDS011;64752;48.870;9.082;2024-01-11T03:05:41;99.20;;;55.90;;
76053;SDS011;64752;48.870;9.082;2024-01-11T03:08:06;105.07;;;57.83;;
76053;SDS011;64752;48.870;9.082;2024-01-11T03:10:32;105.67;;;55.70;;
76053;SDS011;64752;48.870;9.082;2024-01-11T03:12:57;104.43;;;56.50;;
76053;SDS011;64752;48.870;9.082;2024-01-11T03:15:23;121.57;;;63.07;;
76053;SDS011;64752;48.870;9.082;2024-01-11T03:17:48;114.30;;;59.97;;
76053;SDS011;64752;48.870;9.082;2024-01-11T03:20:13;119.30;;;63.53;;
76053;SDS011;64752;48.870;9.082;2024-01-11T03:22:44;118.83;;;60.60;;
76053;SDS011;64752;48.870;9.082;2024-01-11T03:25:10;102.85;;;54.60;;
76053;SDS011;64752;48.870;9.082;2024-01-11T03:27:36;99.13;;;53.90;;
76053;SDS011;64752;48.870;9.082;2024-01-11T03:30:01;100.43;;;55.27;;
76053;SDS011;64752;48.870;9.082;2024-01-11T03:32:26;122.77;;;63.33;;
76053;SDS011;64752;48.870;9.082;2024-01-11T03:34:52;115.70;;;61.27;;
76053;SDS011;64752;48.870;9.082;2024-01-11T03:37:17;111.07;;;59.00;;
76053;SDS011;64752;48.870;9.082;2024-01-11T03:39:43;101.60;;;55.83;;
76053;SDS011;64752;48.870;9.082;2024-01-11T03:42:08;99.73;;;55.80;;
76053;SDS011;64752;48.870;9.082;2024-01-11T03:44:35;99.37;;;54.97;;
76053;SDS011;64752;48.870;9.082;2024-01-11T03:47:01;95.43;;;52.38;;
76053;SDS011;64752;48.870;9.082;2024-01-11T03:49:26;93.03;;;51.90;;
76053;SDS011;64752;48.870;9.082;2024-01-11T03:51:52;92.30;;;51.57;;
76053;SDS011;64752;48.870;9.082;2024-01-11T03:54:17;84.17;;;49.47;;
76053;SDS011;64752;48.870;9.082;2024-01-11T03:56:42;91.17;;;52.80;;
76053;SDS011;64752;48.870;9.082;2024-01-11T03:59:08;101.33;;;56.67;;
76053;SDS011;64752;48.870;9.082;2024-01-11T04:01:33;101.00;;;54.53;;
76053;SDS011;64752;48.870;9.082;2024-01-11T04:04:03;98.90;;;54.92;;
76053;SDS011;64752;48.870;9.082;2024-01-11T04:06:28;116.43;;;60.37;;
76053;SDS011;64752;48.870;9.082;2024-01-11T04:08:53;121.60;;;63.70;;
76053;SDS011;64752;48.870;9.082;2024-01-11T04:11:19;109.30;;;60.35;;
76053;SDS011;64752;48.870;9.082;2024-01-11T04:13:45;118.27;;;61.90;;
76053;SDS011;64752;48.870;9.082;2024-01-11T04:16:10;104.67;;;55.77;;
76053;SDS011;64752;48.870;9.082;2024-01-11T04:18:35;99.47;;;53.80;;
76053;SDS011;64752;48.870;9.082;2024-01-11T04:21:01;87.43;;;49.13;;
76053;SDS011;64752;48.870;9.082;2024-01-11T04:23:26;85.77;;;47.30;;
76053;SDS011;64752;48.870;9.082;2024-01-11T04:25:52;96.77;;;52.93;;
76053;SDS011;64752;48.870;9.082;2024-01-11T04:28:17;109.67;;;58.63;;
76053;SDS011;64752;48.870;9.082;2024-01-11T04:30:43;111.87;;;59.17;;
76053;SDS011;64752;48.870;9.082;2024-01-11T04:33:09;107.77;;;57.97;;
76053;SDS011;64752;48.870;9.082;2024-01-11T04:35:35;102.68;;;54.35;;
76053;SDS011;64752;48.870;9.082;2024-01-11T04:38:00;87.80;;;50.17;;
76053;SDS011;64752;48.870;9.082;2024-01-11T04:40:26;86.80;;;50.63;;
76053;SDS011;64752;48.870;9.082;2024-01-11T04:42:51;92.80;;;50.43;;
76053;SDS011;64752;48.870;9.082;2024-01-11T04:45:17;83.20;;;49.47;;
76053;SDS011;64752;48.870;9.082;2024-01-11T04:47:42;92.57;;;50.40;;
76053;SDS011;64752;48.870;9.082;2024-01-11T04:50:08;93.03;;;48.73;;
76053;SDS011;64752;48.870;9.082;2024-01-11T04:52:33;114.53;;;67.07;;
76053;SDS011;64752;48.870;9.082;2024-01-11T04:54:59;113.87;;;60.43;;
76053;SDS011;64752;48.870;9.082;2024-01-11T04:57:24;110.53;;;56.90;;
76053;SDS011;64752;48.870;9.082;2024-01-11T04:59:49;113.17;;;58.17;;
76053;SDS011;64752;48.870;9.082;2024-01-11T05:02:15;104.07;;;56.33;;
76053;SDS011;64752;48.870;9.082;2024-01-11T05:04:40;97.83;;;51.17;;
76053;SDS011;64752;48.870;9.082;2024-01-11T05:07:06;87.17;;;49.57;;
76053;SDS011;64752;48.870;9.082;2024-01-11T05:09:31;90.37;;;48.07;;
76053;SDS011;64752;48.870;9.082;2024-01-11T05:11:56;90.63;;;49.33;;
76053;SDS011;64752;48.870;9.082;2024-01-11T05:14:22;82.40;;;47.03;;
76053;SDS011;64752;48.870;9.082;2024-01-11T05:16:47;79.20;;;46.20;;
76053;SDS011;64752;48.870;9.082;2024-01-11T05:19:12;87.73;;;45.87;;
76053;SDS011;64752;48.870;9.082;2024-01-11T05:21:38;81.97;;;47.20;;
76053;SDS011;64752;48.870;9.082;2024-01-11T05:24:03;85.37;;;50.30;;
76053;SDS011;64752;48.870;9.082;2024-01-11T05:26:29;84.90;;;46.80;;
76053;SDS011;64752;48.870;9.082;2024-01-11T05:28:54;86.73;;;47.53;;
76053;SDS011;64752;48.870;9.082;2024-01-11T05:31:19;84.97;;;49.17;;
76053;SDS011;64752;48.870;9.082;2024-01-11T05:33:45;92.35;;;53.05;;
76053;SDS011;64752;48.870;9.082;2024-01-11T05:36:11;94.80;;;53.33;;
76053;SDS011;64752;48.870;9.082;2024-01-11T05:38:37;82.60;;;48.40;;
76053;SDS011;64752;48.870;9.082;2024-01-11T05:41:04;92.38;;;50.58;;
76053;SDS011;64752;48.870;9.082;2024-01-11T05:43:29;85.93;;;48.30;;
76053;SDS011;64752;48.870;9.082;2024-01-11T05:45:55;90.13;;;52.23;;
76053;SDS011;64752;48.870;9.082;2024-01-11T05:48:20;88.70;;;51.63;;
76053;SDS011;64752;48.870;9.082;2024-01-11T05:50:45;91.40;;;53.00;;
76053;SDS011;64752;48.870;9.082;2024-01-11T05:53:11;100.50;;;56.17;;
76053;SDS011;64752;48.870;9.082;2024-01-11T05:55:37;98.15;;;52.90;;
76053;SDS011;64752;48.870;9.082;2024-01-11T05:58:03;87.67;;;50.13;;
76053;SDS011;64752;48.870;9.082;2024-01-11T06:00:29;90.72;;;53.50;;
76053;SDS011;64752;48.870;9.082;2024-01-11T06:02:55;106.53;;;59.50;;
76053;SDS011;64752;48.870;9.082;2024-01-11T06:05:21;93.68;;;52.67;;
76053;SDS011;64752;48.870;9.082;2024-01-11T06:07:46;96.80;;;53.33;;
76053;SDS011;64752;48.870;9.082;2024-01-11T06:10:12;97.70;;;52.20;;
76053;SDS011;64752;48.870;9.082;2024-01-11T06:12:38;90.00;;;52.50;;
76053;SDS011;64752;48.870;9.082;2024-01-11T06:15:04;106.88;;;57.03;;
76053;SDS011;64752;48.870;9.082;2024-01-11T06:17:30;103.37;;;58.53;;
76053;SDS011;64752;48.870;9.082;2024-01-11T06:19:55;100.80;;;54.27;;
76053;SDS011;64752;48.870;9.082;2024-01-11T06:22:21;115.13;;;61.87;;
76053;SDS011;64752;48.870;9.082;2024-01-11T06:24:46;117.93;;;66.17;;
76053;SDS011;64752;48.870;9.082;2024-01-11T06:27:12;134.53;;;74.30;;
76053;SDS011;64752;48.870;9.082;2024-01-11T06:29:37;127.13;;;70.37;;
76053;SDS011;64752;48.870;9.082;2024-01-11T06:32:02;112.67;;;62.17;;
76053;SDS011;64752;48.870;9.082;2024-01-11T06:34:28;102.67;;;58.47;;
76053;SDS011;64752;48.870;9.082;2024-01-11T06:36:54;115.40;;;62.33;;
76053;SDS011;64752;48.870;9.082;2024-01-11T06:39:20;112.15;;;63.33;;
76053;SDS011;64752;48.870;9.082;2024-01-11T06:41:45;103.07;;;58.23;;
76053;SDS011;64752;48.870;9.082;2024-01-11T06:44:11;102.87;;;58.57;;
76053;SDS011;64752;48.870;9.082;2024-01-11T06:46:36;108.50;;;56.93;;
76053;SDS011;64752;48.870;9.082;2024-01-11T06:49:04;95.25;;;48.03;;
76053;SDS011;64752;48.870;9.082;2024-01-11T06:51:30;92.57;;;43.37;;
76053;SDS011;64752;48.870;9.082;2024-01-11T06:53:55;84.77;;;43.20;;
76053;SDS011;64752;48.870;9.082;2024-01-11T06:56:20;92.73;;;43.17;;
76053;SDS011;64752;48.870;9.082;2024-01-11T06:58:46;88.83;;;41.30;;
76053;SDS011;64752;48.870;9.082;2024-01-11T07:01:12;84.33;;;43.23;;
76053;SDS011;64752;48.870;9.082;2024-01-11T07:03:37;88.40;;;43.67;;
76053;SDS011;64752;48.870;9.082;2024-01-11T07:06:03;93.80;;;45.90;;
76053;SDS011;64752;48.870;9.082;2024-01-11T07:08:29;113.00;;;50.67;;
76053;SDS011;64752;48.870;9.082;2024-01-11T07:10:55;112.43;;;52.50;;
76053;SDS011;64752;48.870;9.082;2024-01-11T07:13:22;121.97;;;57.08;;
76053;SDS011;64752;48.870;9.082;2024-01-11T07:15:47;115.23;;;52.23;;
76053;SDS011;64752;48.870;9.082;2024-01-11T07:18:13;99.83;;;48.63;;
76053;SDS011;64752;48.870;9.082;2024-01-11T07:20:39;115.88;;;49.33;;
76053;SDS011;64752;48.870;9.082;2024-01-11T07:23:05;123.57;;;51.90;;
76053;SDS011;64752;48.870;9.082;2024-01-11T07:25:30;113.37;;;52.37;;
76053;SDS011;64752;48.870;9.082;2024-01-11T07:27:55;108.73;;;49.90;;
76053;SDS011;64752;48.870;9.082;2024-01-11T07:30:21;107.77;;;53.80;;
76053;SDS011;64752;48.870;9.082;2024-01-11T07:32:46;113.10;;;52.40;;
76053;SDS011;64752;48.870;9.082;2024-01-11T07:35:11;112.43;;;50.37;;
76053;SDS011;64752;48.870;9.082;2024-01-11T07:37:39;138.57;;;60.70;;
76053;SDS011;64752;48.870;9.082;2024-01-11T07:40:05;128.17;;;56.03;;
76053;SDS011;64752;48.870;9.082;2024-01-11T07:42:35;151.73;;;61.55;;
76053;SDS011;64752;48.870;9.082;2024-01-11T07:45:01;129.33;;;57.73;;
76053;SDS011;64752;48.870;9.082;2024-01-11T07:47:26;118.23;;;52.13;;
76053;SDS011;64752;48.870;9.082;2024-01-11T07:49:51;150.93;;;67.00;;
76053;SDS011;64752;48.870;9.082;2024-01-11T07:52:17;176.13;;;72.57;;
76053;SDS011;64752;48.870;9.082;2024-01-11T07:54:43;139.53;;;61.90;;
76053;SDS011;64752;48.870;9.082;2024-01-11T07:57:08;120.10;;;57.93;;
76053;SDS011;64752;48.870;9.082;2024-01-11T07:59:34;110.00;;;52.00;;
76053;SDS011;64752;48.870;9.082;2024-01-11T08:02:03;119.60;;;54.95;;
76053;SDS011;64752;48.870;9.082;2024-01-11T08:04:28;100.43;;;49.60;;
76053;SDS011;64752;48.870;9.082;2024-01-11T08:06:54;121.33;;;52.47;;
76053;SDS011;64752;48.870;9.082;2024-01-11T08:09:21;96.13;;;46.47;;
76053;SDS011;64752;48.870;9.082;2024-01-11T08:11:47;103.20;;;48.30;;
76053;SDS011;64752;48.870;9.082;2024-01-11T08:14:12;112.97;;;51.03;;
76053;SDS011;64752;48.870;9.082;2024-01-11T08:16:39;110.53;;;49.15;;
76053;SDS011;64752;48.870;9.082;2024-01-11T08:19:04;96.80;;;46.50;;
76053;SDS011;64752;48.870;9.082;2024-01-11T08:21:30;84.20;;;42.90;;
76053;SDS011;64752;48.870;9.082;2024-01-11T08:23:55;91.80;;;43.30;;
76053;SDS011;64752;48.870;9.082;2024-01-11T08:26:20;86.20;;;42.63;;
76053;SDS011;64752;48.870;9.082;2024-01-11T08:28:47;84.35;;;41.53;;
76053;SDS011;64752;48.870;9.082;2024-01-11T08:31:13;90.28;;;43.88;;
76053;SDS011;64752;48.870;9.082;2024-01-11T08:33:38;88.43;;;41.47;;
76053;SDS011;64752;48.870;9.082;2024-01-11T08:36:04;81.53;;;39.97;;
76053;SDS011;64752;48.870;9.082;2024-01-11T08:38:31;77.10;;;39.30;;
76053;SDS011;64752;48.870;9.082;2024-01-11T08:40:57;83.20;;;41.63;;
76053;SDS011;64752;48.870;9.082;2024-01-11T08:43:23;77.03;;;41.28;;
76053;SDS011;64752;48.870;9.082;2024-01-11T08:45:49;77.28;;;41.10;;
76053;SDS011;64752;48.870;9.082;2024-01-11T08:48:15;77.50;;;38.73;;
76053;SDS011;64752;48.870;9.082;2024-01-11T08:50:40;73.97;;;38.73;;
76053;SDS011;64752;48.870;9.082;2024-01-11T08:53:09;74.43;;;38.37;;
76053;SDS011;64752;48.870;9.082;2024-01-11T08:55:34;69.68;;;37.83;;
76053;SDS011;64752;48.870;9.082;2024-01-11T08:58:00;69.17;;;37.90;;
76053;SDS011;64752;48.870;9.082;2024-01-11T09:00:26;76.47;;;36.93;;
76053;SDS011;64752;48.870;9.082;2024-01-11T09:02:53;69.45;;;36.05;;
76053;SDS011;64752;48.870;9.082;2024-01-11T09:05:18;59.17;;;33.80;;
76053;SDS011;64752;48.870;9.082;2024-01-11T09:07:44;52.83;;;28.90;;
76053;SDS011;64752;48.870;9.082;2024-01-11T09:10:10;56.53;;;30.63;;
76053;SDS011;64752;48.870;9.082;2024-01-11T09:12:38;50.13;;;27.38;;
76053;SDS011;64752;48.870;9.082;2024-01-11T09:15:04;49.65;;;28.88;;
76053;SDS011;64752;48.870;9.082;2024-01-11T09:17:29;44.83;;;27.08;;
76053;SDS011;64752;48.870;9.082;2024-01-11T09:19:55;46.72;;;27.83;;
76053;SDS011;64752;48.870;9.082;2024-01-11T09:22:20;41.70;;;25.45;;
76053;SDS011;64752;48.870;9.082;2024-01-11T09:24:46;46.75;;;27.08;;
76053;SDS011;64752;48.870;9.082;2024-01-11T09:27:11;41.33;;;26.85;;
76053;SDS011;64752;48.870;9.082;2024-01-11T09:29:41;37.47;;;24.48;;
76053;SDS011;64752;48.870;9.082;2024-01-11T09:32:08;40.17;;;25.13;;
76053;SDS011;64752;48.870;9.082;2024-01-11T09:34:34;41.35;;;25.50;;
76053;SDS011;64752;48.870;9.082;2024-01-11T09:36:59;40.90;;;24.60;;
76053;SDS011;64752;48.870;9.082;2024-01-11T09:39:28;38.72;;;23.55;;
76053;SDS011;64752;48.870;9.082;2024-01-11T09:42:17;39.92;;;23.88;;
76053;SDS011;64752;48.870;9.082;2024-01-11T09:44:43;43.50;;;25.15;;
76053;SDS011;64752;48.870;9.082;2024-01-11T09:47:11;35.00;;;23.23;;
76053;SDS011;64752;48.870;9.082;2024-01-11T09:49:39;37.40;;;24.15;;
76053;SDS011;64752;48.870;9.082;2024-01-11T09:52:07;35.25;;;23.50;;
76053;SDS011;64752;48.870;9.082;2024-01-11T09:54:35;35.47;;;23.42;;
76053;SDS011;64752;48.870;9.082;2024-01-11T09:57:02;34.25;;;23.17;;
76053;SDS011;64752;48.870;9.082;2024-01-11T10:01:55;34.13;;;22.60;;
76053;SDS011;64752;48.870;9.082;2024-01-11T10:04:20;35.78;;;22.90;;
76053;SDS011;64752;48.870;9.082;2024-01-11T10:06:46;35.85;;;23.23;;
76053;SDS011;64752;48.870;9.082;2024-01-11T10:09:13;34.67;;;22.63;;
76053;SDS011;64752;48.870;9.082;2024-01-11T10:11:39;33.03;;;22.30;;
76053;SDS011;64752;48.870;9.082;2024-01-11T10:14:04;35.65;;;23.48;;
76053;SDS011;64752;48.870;9.082;2024-01-11T10:16:30;38.45;;;24.45;;
76053;SDS011;64752;48.870;9.082;2024-01-11T10:18:56;34.28;;;22.88;;
76053;SDS011;64752;48.870;9.082;2024-01-11T10:21:23;37.95;;;22.48;;
76053;SDS011;64752;48.870;9.082;2024-01-11T10:23:49;38.05;;;23.00;;
76053;SDS011;64752;48.870;9.082;2024-01-11T10:26:15;35.20;;;22.40;;
76053;SDS011;64752;48.870;9.082;2024-01-11T10:28:45;39.22;;;24.55;;
76053;SDS011;64752;48.870;9.082;2024-01-11T10:31:11;39.00;;;23.35;;
76053;SDS011;64752;48.870;9.082;2024-01-11T10:33:37;36.95;;;23.40;;
76053;SDS011;64752;48.870;9.082;2024-01-11T10:36:03;36.30;;;23.52;;
76053;SDS011;64752;48.870;9.082;2024-01-11T10:38:30;37.15;;;23.40;;
76053;SDS011;64752;48.870;9.082;2024-01-11T10:40:55;33.58;;;22.60;;
76053;SDS011;64752;48.870;9.082;2024-01-11T10:43:25;33.88;;;23.10;;
76053;SDS011;64752;48.870;9.082;2024-01-11T10:45:51;39.17;;;24.80;;
76053;SDS011;64752;48.870;9.082;2024-01-11T10:48:22;35.97;;;23.63;;
76053;SDS011;64752;48.870;9.082;2024-01-11T10:50:58;36.20;;;23.77;;
76053;SDS011;64752;48.870;9.082;2024-01-11T10:56:12;37.45;;;24.52;;
76053;SDS011;64752;48.870;9.082;2024-01-11T10:58:42;38.20;;;25.10;;
76053;SDS011;64752;48.870;9.082;2024-01-11T11:01:11;34.30;;;24.23;;
76053;SDS011;64752;48.870;9.082;2024-01-11T11:03:38;37.13;;;24.73;;
76053;SDS011;64752;48.870;9.082;2024-01-11T11:06:07;38.25;;;25.15;;
76053;SDS011;64752;48.870;9.082;2024-01-11T11:08:34;32.95;;;24.25;;
76053;SDS011;64752;48.870;9.082;2024-01-11T11:11:12;35.25;;;24.38;;
76053;SDS011;64752;48.870;9.082;2024-01-11T11:13:38;37.78;;;24.85;;
76053;SDS011;64752;48.870;9.082;2024-01-11T11:16:06;36.03;;;25.63;;
76053;SDS011;64752;48.870;9.082;2024-01-11T11:18:32;42.10;;;26.17;;
76053;SDS011;64752;48.870;9.082;2024-01-11T11:21:00;37.03;;;25.48;;
76053;SDS011;64752;48.870;9.082;2024-01-11T11:23:26;34.55;;;24.40;;
76053;SDS011;64752;48.870;9.082;2024-01-11T11:25:53;34.80;;;24.38;;
76053;SDS011;64752;48.870;9.082;2024-01-11T11:28:20;39.08;;;26.23;;
76053;SDS011;64752;48.870;9.082;2024-01-11T11:30:47;35.15;;;25.35;;
76053;SDS011;64752;48.870;9.082;2024-01-11T11:33:18;36.33;;;24.35;;
76053;SDS011;64752;48.870;9.082;2024-01-11T11:35:45;39.42;;;26.77;;
76053;SDS011;64752;48.870;9.082;2024-01-11T11:38:18;37.00;;;25.95;;
76053;SDS011;64752;48.870;9.082;2024-01-11T11:40:48;34.58;;;25.00;;
76053;SDS011;64752;48.870;9.082;2024-01-11T11:43:16;36.20;;;25.20;;
76053;SDS011;64752;48.870;9.082;2024-01-11T11:51:10;37.38;;;26.10;;
76053;SDS011;64752;48.870;9.082;2024-01-11T11:53:38;35.40;;;26.33;;
76053;SDS011;64752;48.870;9.082;2024-01-11T11:58:30;36.05;;;25.77;;
76053;SDS011;64752;48.870;9.082;2024-01-11T12:00:57;36.47;;;24.83;;
76053;SDS011;64752;48.870;9.082;2024-01-11T12:05:53;34.60;;;24.50;;
76053;SDS011;64752;48.870;9.082;2024-01-11T12:08:19;37.08;;;25.10;;
76053;SDS011;64752;48.870;9.082;2024-01-11T12:10:46;37.95;;;26.00;;
76053;SDS011;64752;48.870;9.082;2024-01-11T12:13:12;38.08;;;26.00;;
76053;SDS011;64752;48.870;9.082;2024-01-11T12:15:37;35.95;;;25.48;;
76053;SDS011;64752;48.870;9.082;2024-01-11T12:18:03;36.88;;;25.13;;
76053;SDS011;64752;48.870;9.082;2024-01-11T12:20:28;37.50;;;26.38;;
76053;SDS011;64752;48.870;9.082;2024-01-11T12:22:54;37.92;;;25.73;;
76053;SDS011;64752;48.870;9.082;2024-01-11T12:25:20;36.15;;;26.55;;
76053;SDS011;64752;48.870;9.082;2024-01-11T12:27:47;37.55;;;25.48;;
76053;SDS011;64752;48.870;9.082;2024-01-11T12:30:12;37.45;;;26.60;;
76053;SDS011;64752;48.870;9.082;2024-01-11T12:32:42;43.80;;;28.02;;
76053;SDS011;64752;48.870;9.082;2024-01-11T12:35:08;42.35;;;26.70;;
76053;SDS011;64752;48.870;9.082;2024-01-11T12:37:33;40.53;;;26.83;;
76053;SDS011;64752;48.870;9.082;2024-01-11T12:39:59;40.47;;;25.80;;
76053;SDS011;64752;48.870;9.082;2024-01-11T12:42:28;37.13;;;26.08;;
76053;SDS011;64752;48.870;9.082;2024-01-11T12:44:53;38.85;;;25.90;;
76053;SDS011;64752;48.870;9.082;2024-01-11T12:47:19;42.35;;;26.30;;
76053;SDS011;64752;48.870;9.082;2024-01-11T12:49:45;37.95;;;26.58;;
76053;SDS011;64752;48.870;9.082;2024-01-11T12:52:17;37.85;;;25.48;;
76053;SDS011;64752;48.870;9.082;2024-01-11T12:54:45;39.17;;;25.33;;
76053;SDS011;64752;48.870;9.082;2024-01-11T12:57:20;36.67;;;25.25;;
76053;SDS011;64752;48.870;9.082;2024-01-11T12:59:46;41.75;;;27.30;;
76053;SDS011;64752;48.870;9.082;2024-01-11T13:02:11;40.92;;;28.08;;
76053;SDS011;64752;48.870;9.082;2024-01-11T13:04:39;38.90;;;27.58;;
76053;SDS011;64752;48.870;9.082;2024-01-11T13:07:04;45.30;;;29.20;;
76053;SDS011;64752;48.870;9.082;2024-01-11T13:09:31;44.57;;;28.27;;
76053;SDS011;64752;48.870;9.082;2024-01-11T13:11:56;43.67;;;27.90;;
76053;SDS011;64752;48.870;9.082;2024-01-11T13:14:23;37.60;;;26.67;;
76053;SDS011;64752;48.870;9.082;2024-01-11T13:16:48;41.15;;;26.98;;
76053;SDS011;64752;48.870;9.082;2024-01-11T13:19:14;36.85;;;26.77;;
76053;SDS011;64752;48.870;9.082;2024-01-11T13:21:39;43.15;;;27.63;;
76053;SDS011;64752;48.870;9.082;2024-01-11T13:24:06;45.40;;;28.38;;
76053;SDS011;64752;48.870;9.082;2024-01-11T13:26:32;42.60;;;27.65;;
76053;SDS011;64752;48.870;9.082;2024-01-11T13:28:58;41.78;;;27.33;;
76053;SDS011;64752;48.870;9.082;2024-01-11T13:31:23;46.10;;;29.50;;
76053;SDS011;64752;48.870;9.082;2024-01-11T13:33:49;44.95;;;28.40;;
76053;SDS011;64752;48.870;9.082;2024-01-11T13:36:14;40.28;;;27.27;;
76053;SDS011;64752;48.870;9.082;2024-01-11T13:38:40;45.42;;;27.48;;
76053;SDS011;64752;48.870;9.082;2024-01-11T13:41:06;44.00;;;26.45;;
76053;SDS011;64752;48.870;9.082;2024-01-11T13:43:33;48.40;;;27.15;;
76053;SDS011;64752;48.870;9.082;2024-01-11T13:45:59;40.83;;;26.25;;
76053;SDS011;64752;48.870;9.082;2024-01-11T13:48:30;38.67;;;26.35;;
76053;SDS011;64752;48.870;9.082;2024-01-11T13:50:57;38.35;;;26.15;;
76053;SDS011;64752;48.870;9.082;2024-01-11T13:53:22;41.90;;;27.30;;
76053;SDS011;64752;48.870;9.082;2024-01-11T13:55:48;43.30;;;27.02;;
76053;SDS011;64752;48.870;9.082;2024-01-11T13:58:13;46.30;;;26.30;;
76053;SDS011;64752;48.870;9.082;2024-01-11T14:00:40;42.35;;;26.35;;
76053;SDS011;64752;48.870;9.082;2024-01-11T14:03:06;42.03;;;26.40;;
76053;SDS011;64752;48.870;9.082;2024-01-11T14:05:35;41.53;;;27.33;;
76053;SDS011;64752;48.870;9.082;2024-01-11T14:08:01;45.22;;;27.52;;
76053;SDS011;64752;48.870;9.082;2024-01-11T14:10:30;45.75;;;27.92;;
76053;SDS011;64752;48.870;9.082;2024-01-11T14:15:22;39.30;;;26.58;;
76053;SDS011;64752;48.870;9.082;2024-01-11T14:17:49;40.22;;;26.80;;
76053;SDS011;64752;48.870;9.082;2024-01-11T14:20:14;43.38;;;27.38;;
76053;SDS011;64752;48.870;9.082;2024-01-11T14:22:40;43.78;;;27.00;;
76053;SDS011;64752;48.870;9.082;2024-01-11T14:25:06;45.30;;;27.08;;
76053;SDS011;64752;48.870;9.082;2024-01-11T14:27:32;40.95;;;25.73;;
76053;SDS011;64752;48.870;9.082;2024-01-11T14:29:57;41.28;;;26.67;;
76053;SDS011;64752;48.870;9.082;2024-01-11T14:32:23;44.28;;;27.05;;